Time;durP1;ratioP1;P1;durP2;ratioP2;P2;SDS_P1;SDS_P2;PMS_P1;PMS_P2;Temp;Humidity;BMP_temperature;BMP_pressure;BME280_temperature;BME280_humidity;BME280_pressure;Samples;Min_cycle;Max_cycle;Signal;HPM_P1;HPM_P2
2023/07/30 00:01:12;;;;;;;15.00;4.43;;;17.50;99.90;;;;;;5109127;27;20620;-82
2023/07/30 00:03:37;;;;;;;12.10;3.97;;;17.40;99.90;;;;;;5115185;27;20452;-82
2023/07/30 00:06:03;;;;;;;10.15;3.97;;;17.40;99.90;;;;;;5117539;27;20039;-82
2023/07/30 00:08:29;;;;;;;17.67;4.63;;;17.30;99.90;;;;;;5111049;27;20036;-81
2023/07/30 00:10:57;;;;;;;12.13;4.20;;;17.20;99.90;;;;;;5112179;27;20069;-81
2023/07/30 00:13:23;;;;;;;11.15;4.13;;;17.10;99.90;;;;;;5111332;27;20042;-80
2023/07/30 00:15:49;;;;;;;14.15;4.40;;;17.00;99.90;;;;;;5111066;27;20424;-79
2023/07/30 00:18:16;;;;;;;8.85;3.80;;;17.10;99.90;;;;;;5110638;27;20036;-79
2023/07/30 00:20:41;;;;;;;8.20;3.42;;;17.00;99.90;;;;;;5114004;27;20520;-79
2023/07/30 00:23:07;;;;;;;11.57;4.43;;;16.90;99.90;;;;;;5111706;27;20039;-80
2023/07/30 00:25:33;;;;;;;11.15;3.92;;;16.90;99.90;;;;;;5116886;27;20141;-80
2023/07/30 00:27:58;;;;;;;12.23;4.70;;;16.90;99.90;;;;;;5109251;27;20047;-80
2023/07/30 00:30:24;;;;;;;12.82;4.07;;;16.80;99.90;;;;;;5116472;27;20370;-80
2023/07/30 00:32:50;;;;;;;13.98;4.93;;;16.80;99.90;;;;;;5111423;27;20077;-80
2023/07/30 00:35:16;;;;;;;8.82;3.88;;;16.80;99.90;;;;;;5113952;27;20047;-79
2023/07/30 00:37:41;;;;;;;8.65;4.00;;;16.80;99.90;;;;;;5111102;27;20039;-79
2023/07/30 00:40:07;;;;;;;13.15;4.70;;;16.80;99.90;;;;;;5115036;27;20035;-80
2023/07/30 00:42:33;;;;;;;14.27;4.90;;;16.80;99.90;;;;;;5111016;27;20040;-80
2023/07/30 00:44:59;;;;;;;12.68;4.38;;;16.80;99.90;;;;;;5107338;27;20035;-79
2023/07/30 00:47:26;;;;;;;7.68;3.10;;;16.80;99.90;;;;;;5110225;27;20429;-79
2023/07/30 00:49:52;;;;;;;10.95;4.00;;;16.80;99.90;;;;;;5110607;27;20043;-79
2023/07/30 00:52:20;;;;;;;14.05;4.80;;;16.80;99.90;;;;;;5113342;27;20051;-80
2023/07/30 00:54:48;;;;;;;13.27;3.63;;;16.70;99.90;;;;;;5110628;27;20042;-79
2023/07/30 00:57:15;;;;;;;16.02;4.63;;;16.70;99.90;;;;;;5114499;27;20044;-79
2023/07/30 00:59:41;;;;;;;10.77;4.75;;;16.70;99.90;;;;;;5118366;27;20050;-80
2023/07/30 01:02:07;;;;;;;16.45;4.03;;;16.70;99.90;;;;;;5128895;27;20427;-80
2023/07/30 01:04:33;;;;;;;11.13;4.45;;;16.60;99.90;;;;;;5130960;27;20038;-79
2023/07/30 01:06:58;;;;;;;13.43;4.47;;;16.60;99.90;;;;;;5130498;27;20031;-79
2023/07/30 01:09:24;;;;;;;12.63;4.60;;;16.60;99.90;;;;;;5132650;27;20043;-79
2023/07/30 01:11:51;;;;;;;12.32;4.80;;;16.60;99.90;;;;;;5138741;27;20023;-79
2023/07/30 01:14:20;;;;;;;12.63;4.13;;;16.60;99.90;;;;;;5130319;27;20429;-81
2023/07/30 01:16:45;;;;;;;17.35;5.20;;;16.60;99.90;;;;;;5130497;27;20069;-82
2023/07/30 01:19:11;;;;;;;11.88;4.78;;;16.60;99.90;;;;;;5132339;27;20034;-79
2023/07/30 01:21:37;;;;;;;13.20;4.85;;;16.60;99.90;;;;;;5135413;27;20031;-80
2023/07/30 01:24:03;;;;;;;11.68;4.05;;;16.60;99.90;;;;;;5131449;27;20088;-79
2023/07/30 01:26:45;;;;;;;14.90;4.82;;;16.50;99.90;;;;;;5134000;27;20370;-79
2023/07/30 01:29:16;;;;;;;12.20;4.40;;;16.50;99.90;;;;;;5119984;27;20049;-79
2023/07/30 01:31:43;;;;;;;16.05;4.85;;;16.60;99.90;;;;;;5135371;27;20126;-79
2023/07/30 01:34:11;;;;;;;16.60;5.30;;;16.50;99.90;;;;;;5115987;27;20118;-80
2023/07/30 01:36:38;;;;;;;12.27;4.28;;;16.60;99.90;;;;;;5131298;27;20043;-80
2023/07/30 01:39:05;;;;;;;17.23;4.75;;;16.50;99.90;;;;;;5133017;27;20103;-80
2023/07/30 01:41:31;;;;;;;14.82;4.80;;;16.50;99.90;;;;;;5139851;27;20501;-79
2023/07/30 01:43:57;;;;;;;15.18;4.68;;;16.50;99.90;;;;;;5138078;27;20035;-79
2023/07/30 01:46:22;;;;;;;13.60;4.93;;;16.50;99.90;;;;;;5131848;27;20027;-82
2023/07/30 01:48:48;;;;;;;19.42;5.65;;;16.40;99.90;;;;;;5133967;27;20091;-82
2023/07/30 01:51:14;;;;;;;18.10;5.28;;;16.40;99.90;;;;;;5129910;27;20083;-82
2023/07/30 01:53:39;;;;;;;17.35;5.00;;;16.40;99.90;;;;;;5136147;27;20064;-82
2023/07/30 01:56:05;;;;;;;18.17;6.05;;;16.30;99.90;;;;;;5133689;27;20628;-82
2023/07/30 01:58:30;;;;;;;15.90;5.22;;;16.30;99.90;;;;;;5134684;27;20041;-81
2023/07/30 02:00:56;;;;;;;16.85;4.93;;;16.40;99.90;;;;;;5129662;27;20108;-82
2023/07/30 02:03:22;;;;;;;15.88;4.30;;;16.30;99.90;;;;;;5131950;27;20039;-81
2023/07/30 02:05:47;;;;;;;18.35;4.60;;;16.40;99.90;;;;;;5133127;27;20481;-81
2023/07/30 02:08:15;;;;;;;17.73;4.85;;;16.40;99.90;;;;;;5111248;27;20030;-81
2023/07/30 02:10:41;;;;;;;22.08;6.07;;;16.40;99.90;;;;;;5111298;28;20051;-81
2023/07/30 02:13:07;;;;;;;12.25;4.82;;;16.30;99.90;;;;;;5115803;27;20535;-82
2023/07/30 02:15:33;;;;;;;18.90;5.18;;;16.30;99.90;;;;;;5138324;27;20059;-82
2023/07/30 02:17:58;;;;;;;16.50;5.15;;;16.20;99.90;;;;;;5110469;27;20039;-82
2023/07/30 02:20:24;;;;;;;16.15;4.53;;;16.20;99.90;;;;;;5131555;27;20393;-82
2023/07/30 02:22:50;;;;;;;17.80;4.93;;;16.20;99.90;;;;;;5129801;27;20028;-82
2023/07/30 02:25:15;;;;;;;17.20;4.72;;;16.20;99.90;;;;;;5131663;27;20439;-81
2023/07/30 02:27:41;;;;;;;19.40;5.90;;;16.20;99.90;;;;;;5132078;27;20047;-82
2023/07/30 02:30:07;;;;;;;17.05;4.68;;;16.10;99.90;;;;;;5140582;27;20042;-82
2023/07/30 02:32:32;;;;;;;13.88;4.40;;;16.10;99.90;;;;;;5111415;28;20031;-82
2023/07/30 02:34:58;;;;;;;16.95;5.15;;;16.10;99.90;;;;;;5099341;27;20027;-81
2023/07/30 02:37:24;;;;;;;13.48;4.20;;;16.00;99.90;;;;;;5143430;27;20035;-81
2023/07/30 02:39:49;;;;;;;15.70;4.72;;;16.00;99.90;;;;;;5129562;27;20529;-81
2023/07/30 02:42:15;;;;;;;19.70;5.40;;;16.00;99.90;;;;;;5113351;27;20035;-82
2023/07/30 02:44:40;;;;;;;16.25;4.85;;;16.00;99.90;;;;;;5098321;27;20047;-82
2023/07/30 02:47:06;;;;;;;21.48;4.97;;;16.00;99.90;;;;;;5138475;27;20039;-82
2023/07/30 02:49:31;;;;;;;13.75;4.68;;;16.00;99.90;;;;;;5133420;27;20326;-82
2023/07/30 02:51:57;;;;;;;14.85;5.15;;;15.90;99.90;;;;;;5132824;27;20076;-82
2023/07/30 02:54:23;;;;;;;20.15;5.45;;;15.90;99.90;;;;;;5135499;27;20042;-82
2023/07/30 02:56:48;;;;;;;16.27;5.35;;;15.80;99.90;;;;;;5135137;27;20035;-82
2023/07/30 02:59:14;;;;;;;13.25;4.88;;;15.80;99.90;;;;;;5133010;27;20092;-81
2023/07/30 03:01:39;;;;;;;16.05;4.82;;;15.80;99.90;;;;;;5132954;27;20051;-81
2023/07/30 03:04:05;;;;;;;20.08;4.50;;;15.80;99.90;;;;;;5111894;27;20065;-81
2023/07/30 03:06:31;;;;;;;15.68;4.78;;;15.80;99.90;;;;;;5134311;27;20636;-81
2023/07/30 03:08:57;;;;;;;18.90;4.88;;;15.80;99.90;;;;;;5132596;27;20113;-81
2023/07/30 03:11:23;;;;;;;16.00;6.15;;;15.80;99.90;;;;;;5134501;27;20160;-81
2023/07/30 03:13:48;;;;;;;16.50;4.90;;;15.80;99.90;;;;;;5097243;27;20367;-81
2023/07/30 03:16:14;;;;;;;16.75;4.93;;;15.90;99.90;;;;;;5129357;27;20038;-81
2023/07/30 03:18:40;;;;;;;19.48;4.55;;;15.80;99.90;;;;;;5132635;27;20028;-81
2023/07/30 03:21:05;;;;;;;18.98;4.93;;;15.80;99.90;;;;;;5136847;27;20100;-81
2023/07/30 03:23:31;;;;;;;17.90;4.28;;;15.80;99.90;;;;;;5127842;27;20049;-81
2023/07/30 03:25:59;;;;;;;20.13;5.03;;;15.70;99.90;;;;;;5132390;27;20035;-81
2023/07/30 03:28:25;;;;;;;15.82;4.47;;;15.70;99.90;;;;;;5137145;27;20045;-81
2023/07/30 03:30:51;;;;;;;14.20;4.25;;;15.70;99.90;;;;;;5133023;27;20118;-81
2023/07/30 03:33:16;;;;;;;12.48;4.30;;;15.70;99.90;;;;;;5115128;27;20039;-81
2023/07/30 03:35:42;;;;;;;14.13;4.65;;;15.70;99.90;;;;;;5137488;27;20039;-81
2023/07/30 03:38:08;;;;;;;15.18;4.07;;;15.70;99.90;;;;;;5138913;27;20043;-81
2023/07/30 03:40:33;;;;;;;17.40;4.35;;;15.70;99.90;;;;;;5132136;27;20034;-82
2023/07/30 03:42:59;;;;;;;14.00;4.55;;;15.70;99.90;;;;;;5118940;27;20495;-81
2023/07/30 03:45:25;;;;;;;13.55;3.88;;;15.70;99.90;;;;;;5120731;27;20034;-80
2023/07/30 03:47:50;;;;;;;12.60;4.07;;;15.70;99.90;;;;;;5131828;27;20489;-79
2023/07/30 03:50:16;;;;;;;16.67;4.32;;;15.70;99.90;;;;;;5131910;27;20042;-79
2023/07/30 03:52:41;;;;;;;22.48;4.88;;;15.70;99.90;;;;;;5131724;27;20088;-79
2023/07/30 03:55:07;;;;;;;19.30;5.18;;;15.70;99.90;;;;;;5130940;27;20042;-79
2023/07/30 03:57:33;;;;;;;15.85;4.22;;;15.70;99.90;;;;;;5138263;27;20398;-80
2023/07/30 04:00:00;;;;;;;18.35;4.32;;;15.70;99.90;;;;;;5131819;27;20059;-79
2023/07/30 04:02:26;;;;;;;18.13;4.97;;;15.60;99.90;;;;;;5137333;27;20066;-79
2023/07/30 04:04:52;;;;;;;19.90;4.93;;;15.60;99.90;;;;;;5131897;27;20031;-79
2023/07/30 04:07:17;;;;;;;19.10;4.22;;;15.60;99.90;;;;;;5139967;27;20474;-79
2023/07/30 04:09:43;;;;;;;16.60;3.92;;;15.60;99.90;;;;;;5132407;27;20032;-80
2023/07/30 04:12:08;;;;;;;16.77;4.32;;;15.60;99.90;;;;;;5113901;27;20035;-80
2023/07/30 04:14:34;;;;;;;16.50;4.30;;;15.50;99.90;;;;;;5130979;27;20034;-79
2023/07/30 04:17:00;;;;;;;19.08;4.35;;;15.50;99.90;;;;;;5117588;27;20552;-80
2023/07/30 04:19:25;;;;;;;15.93;4.00;;;15.50;99.90;;;;;;5135957;27;20045;-79
2023/07/30 04:21:51;;;;;;;12.85;3.88;;;15.70;99.90;;;;;;5131665;27;20322;-80
2023/07/30 04:24:16;;;;;;;11.98;3.33;;;15.50;99.90;;;;;;5132741;27;20091;-80
2023/07/30 04:26:42;;;;;;;14.75;3.60;;;15.50;99.90;;;;;;5136641;27;20035;-79
2023/07/30 04:29:08;;;;;;;19.58;4.15;;;15.50;99.90;;;;;;5131151;27;20038;-80
2023/07/30 04:31:33;;;;;;;12.30;3.95;;;15.50;99.90;;;;;;5112844;27;20038;-80
2023/07/30 04:33:59;;;;;;;18.65;4.30;;;15.50;99.90;;;;;;5112504;27;20381;-80
2023/07/30 04:36:24;;;;;;;18.02;3.60;;;15.50;99.90;;;;;;5124082;27;20088;-79
2023/07/30 04:38:50;;;;;;;18.70;3.90;;;15.40;99.90;;;;;;5136040;27;20042;-79
2023/07/30 04:41:18;;;;;;;17.13;4.10;;;15.40;99.90;;;;;;5139335;27;20050;-79
2023/07/30 04:43:44;;;;;;;17.02;3.85;;;15.40;99.90;;;;;;5131145;27;20035;-79
2023/07/30 04:46:09;;;;;;;19.70;4.65;;;15.40;99.90;;;;;;5130734;27;20038;-80
2023/07/30 04:48:36;;;;;;;16.63;4.07;;;15.40;99.90;;;;;;5096652;27;20035;-79
2023/07/30 04:51:03;;;;;;;19.35;4.70;;;15.50;99.90;;;;;;5112879;27;20126;-79
2023/07/30 04:53:28;;;;;;;15.00;4.05;;;15.50;99.90;;;;;;5131333;27;20161;-79
2023/07/30 04:55:57;;;;;;;14.52;3.67;;;15.50;99.90;;;;;;5112541;27;20161;-79
2023/07/30 04:58:23;;;;;;;19.02;4.47;;;15.50;99.90;;;;;;5138608;27;20115;-79
2023/07/30 05:00:49;;;;;;;12.80;3.65;;;15.60;99.90;;;;;;5133456;27;20080;-80
2023/07/30 05:03:15;;;;;;;14.95;3.50;;;15.60;99.90;;;;;;5116248;27;20054;-79
2023/07/30 05:05:41;;;;;;;12.05;3.50;;;15.70;99.90;;;;;;5131207;27;20053;-79
2023/07/30 05:08:07;;;;;;;14.25;3.42;;;15.70;99.90;;;;;;5113415;27;20035;-79
2023/07/30 05:10:33;;;;;;;20.83;3.42;;;15.80;99.90;;;;;;5118476;27;20096;-79
2023/07/30 05:12:59;;;;;;;16.42;3.97;;;15.80;99.90;;;;;;5139457;27;20039;-79
2023/07/30 05:15:25;;;;;;;15.73;4.85;;;15.80;99.90;;;;;;5133253;27;20035;-79
2023/07/30 05:17:51;;;;;;;16.75;3.90;;;15.80;99.90;;;;;;5136742;27;20074;-79
2023/07/30 05:20:17;;;;;;;19.90;4.13;;;15.80;99.90;;;;;;5131619;27;20699;-79
2023/07/30 05:22:42;;;;;;;14.10;3.83;;;15.90;99.90;;;;;;5130474;27;20084;-79
2023/07/30 05:25:08;;;;;;;13.05;3.38;;;15.90;99.90;;;;;;5131423;27;20120;-80
2023/07/30 05:27:35;;;;;;;15.07;3.55;;;15.90;99.90;;;;;;5131797;27;20500;-79
2023/07/30 05:30:01;;;;;;;11.70;3.65;;;15.90;99.90;;;;;;5129457;27;20221;-79
2023/07/30 05:32:27;;;;;;;14.30;3.70;;;16.00;99.90;;;;;;5130051;27;20059;-79
2023/07/30 05:34:52;;;;;;;16.85;4.13;;;16.00;99.90;;;;;;5130418;27;20064;-81
2023/07/30 05:37:18;;;;;;;19.02;3.97;;;16.00;99.90;;;;;;5139235;27;20392;-81
2023/07/30 05:39:44;;;;;;;12.63;3.70;;;16.10;99.90;;;;;;5132381;27;20684;-81
2023/07/30 05:42:09;;;;;;;18.10;4.10;;;16.20;99.90;;;;;;5112788;27;20394;-81
2023/07/30 05:44:35;;;;;;;16.35;4.43;;;16.20;99.90;;;;;;5135315;27;20038;-81
2023/07/30 05:47:00;;;;;;;13.55;4.32;;;16.30;99.90;;;;;;5129779;27;20060;-81
2023/07/30 05:49:26;;;;;;;19.45;4.18;;;16.30;99.90;;;;;;5130092;27;20035;-81
2023/07/30 05:51:52;;;;;;;14.45;3.65;;;16.40;99.90;;;;;;5129821;27;20189;-81
2023/07/30 05:54:18;;;;;;;14.07;3.67;;;16.40;99.90;;;;;;5130075;27;20475;-81
2023/07/30 05:56:43;;;;;;;12.02;3.28;;;16.40;99.90;;;;;;5121574;27;20363;-81
2023/07/30 05:59:09;;;;;;;16.50;3.97;;;16.50;99.90;;;;;;5130408;27;20043;-81
2023/07/30 06:01:35;;;;;;;17.73;3.97;;;16.50;99.90;;;;;;5115048;27;20618;-82
2023/07/30 06:04:00;;;;;;;13.25;3.38;;;16.50;99.90;;;;;;5129727;27;20054;-82
2023/07/30 06:06:29;;;;;;;25.52;4.03;;;16.60;99.90;;;;;;5130734;27;20046;-81
2023/07/30 06:08:55;;;;;;;15.13;3.63;;;16.60;99.90;;;;;;5110938;28;20699;-81
2023/07/30 06:11:21;;;;;;;17.83;4.28;;;16.60;99.90;;;;;;5112239;28;20071;-81
2023/07/30 06:13:46;;;;;;;14.00;3.28;;;16.70;99.90;;;;;;5110806;27;20459;-81
2023/07/30 06:16:12;;;;;;;13.77;3.50;;;16.70;99.90;;;;;;5137576;27;20363;-81
2023/07/30 06:18:38;;;;;;;15.05;3.45;;;16.70;99.90;;;;;;5136953;27;20074;-81
2023/07/30 06:21:03;;;;;;;18.48;3.70;;;16.80;99.90;;;;;;5133569;27;20077;-81
2023/07/30 06:23:29;;;;;;;12.98;3.65;;;16.80;99.90;;;;;;5133960;27;20477;-81
2023/07/30 06:25:55;;;;;;;17.67;3.50;;;16.80;99.90;;;;;;5137348;27;20446;-79
2023/07/30 06:28:20;;;;;;;17.50;4.03;;;16.80;99.90;;;;;;5134421;27;20470;-79
2023/07/30 06:30:46;;;;;;;16.48;3.95;;;16.80;99.90;;;;;;5136764;27;20114;-79
2023/07/30 06:33:12;;;;;;;17.05;3.80;;;16.80;99.90;;;;;;5149276;27;20083;-79
2023/07/30 06:35:37;;;;;;;16.63;4.25;;;16.80;99.90;;;;;;5143654;27;20023;-79
2023/07/30 06:38:03;;;;;;;20.00;3.65;;;16.80;99.90;;;;;;5141916;27;20039;-79
2023/07/30 06:40:28;;;;;;;14.25;3.50;;;16.80;99.90;;;;;;5140286;27;20031;-79
2023/07/30 06:42:54;;;;;;;16.95;4.07;;;16.80;99.90;;;;;;5135181;27;20026;-79
2023/07/30 06:45:20;;;;;;;14.32;3.83;;;16.80;99.90;;;;;;5142775;27;20497;-79
2023/07/30 06:47:45;;;;;;;15.73;3.92;;;16.80;99.90;;;;;;5144251;27;20050;-80
2023/07/30 06:50:11;;;;;;;19.70;4.38;;;16.80;99.90;;;;;;5146075;27;20046;-80
2023/07/30 06:52:37;;;;;;;15.07;4.60;;;16.90;99.90;;;;;;5146183;27;20077;-81
2023/07/30 06:55:03;;;;;;;21.60;3.90;;;16.90;99.90;;;;;;5125664;27;20071;-80
2023/07/30 06:57:31;;;;;;;19.48;3.72;;;16.90;99.90;;;;;;5139390;27;20419;-81
2023/07/30 06:59:58;;;;;;;11.30;3.03;;;17.00;99.90;;;;;;5133075;27;20114;-81
2023/07/30 07:02:24;;;;;;;21.48;4.30;;;17.10;99.90;;;;;;5136950;27;20051;-81
2023/07/30 07:04:50;;;;;;;20.73;4.55;;;17.20;99.90;;;;;;5115356;27;20076;-81
2023/07/30 07:07:15;;;;;;;12.85;3.95;;;17.20;99.90;;;;;;5138712;27;20035;-81
2023/07/30 07:09:41;;;;;;;16.23;4.20;;;17.20;99.90;;;;;;5138423;27;20400;-81
2023/07/30 07:12:07;;;;;;;18.33;4.05;;;17.10;99.90;;;;;;5117170;27;20035;-81
2023/07/30 07:14:32;;;;;;;15.15;3.95;;;17.20;99.90;;;;;;5108692;27;20038;-81
2023/07/30 07:16:58;;;;;;;14.00;4.28;;;17.30;99.90;;;;;;5101003;27;20031;-81
2023/07/30 07:19:24;;;;;;;15.38;3.95;;;17.40;99.90;;;;;;5114334;27;20042;-81
2023/07/30 07:21:49;;;;;;;15.63;3.72;;;17.30;99.90;;;;;;5117048;27;20058;-81
2023/07/30 07:24:16;;;;;;;13.98;4.40;;;17.50;99.90;;;;;;5126464;27;20030;-81
2023/07/30 07:26:41;;;;;;;12.18;4.00;;;17.40;99.90;;;;;;5135864;27;20127;-81
2023/07/30 07:29:07;;;;;;;17.15;4.15;;;17.50;99.90;;;;;;5124703;27;20069;-81
2023/07/30 07:31:33;;;;;;;15.65;3.70;;;17.50;99.90;;;;;;5114435;27;20477;-81
2023/07/30 07:33:58;;;;;;;10.27;3.20;;;17.50;99.90;;;;;;5122651;27;20779;-83
2023/07/30 07:36:24;;;;;;;18.23;3.40;;;17.50;99.90;;;;;;5111728;27;20119;-83
2023/07/30 07:38:50;;;;;;;16.25;3.80;;;17.50;99.90;;;;;;5121383;27;20027;-81
2023/07/30 07:41:16;;;;;;;15.75;3.63;;;17.60;99.90;;;;;;5107462;27;20889;-82
2023/07/30 07:43:53;;;;;;;13.98;3.22;;;17.60;99.90;;;;;;5133345;27;20038;-81
2023/07/30 07:46:19;;;;;;;12.85;3.03;;;17.70;99.90;;;;;;5138971;27;20035;-81
2023/07/30 07:48:45;;;;;;;15.95;3.20;;;17.80;99.90;;;;;;5135924;27;20465;-82
2023/07/30 07:51:11;;;;;;;13.18;3.53;;;17.70;99.90;;;;;;5137231;27;20138;-81
2023/07/30 07:53:37;;;;;;;13.65;3.30;;;17.80;99.90;;;;;;5137136;27;20039;-81
2023/07/30 07:56:03;;;;;;;10.63;2.70;;;18.00;99.90;;;;;;5112852;27;20124;-81
2023/07/30 07:58:29;;;;;;;16.77;2.97;;;18.20;99.90;;;;;;5116901;27;20035;-81
2023/07/30 08:00:58;;;;;;;16.42;3.55;;;18.30;99.90;;;;;;5139336;27;20118;-82
2023/07/30 08:03:24;;;;;;;11.30;2.65;;;18.60;99.90;;;;;;5120109;27;20031;-82
2023/07/30 08:05:50;;;;;;;14.40;2.72;;;18.80;99.90;;;;;;5134724;27;20094;-81
2023/07/30 08:08:16;;;;;;;11.45;3.47;;;18.90;99.90;;;;;;5113682;27;20264;-80
2023/07/30 08:10:47;;;;;;;11.95;2.22;;;19.00;99.90;;;;;;5114401;27;20050;-80
2023/07/30 08:13:13;;;;;;;13.38;2.60;;;19.10;99.90;;;;;;5140848;27;20069;-80
2023/07/30 08:15:39;;;;;;;11.82;2.20;;;19.20;99.90;;;;;;5134926;27;20500;-80
2023/07/30 08:18:05;;;;;;;11.52;2.40;;;19.20;99.90;;;;;;5135820;27;20043;-80
2023/07/30 08:20:31;;;;;;;13.32;2.65;;;19.10;99.90;;;;;;5138154;27;20070;-81
2023/07/30 08:22:56;;;;;;;12.65;2.28;;;19.00;99.90;;;;;;5137825;27;20114;-81
2023/07/30 08:25:22;;;;;;;14.25;2.13;;;18.90;99.90;;;;;;5116125;27;20043;-81
2023/07/30 08:27:47;;;;;;;10.35;1.80;;;18.80;99.90;;;;;;5121738;27;20038;-81
2023/07/30 08:30:13;;;;;;;12.13;2.65;;;18.70;99.90;;;;;;5120439;27;20047;-81
2023/07/30 08:32:41;;;;;;;6.95;1.40;;;18.50;99.90;;;;;;5144430;27;20042;-81
2023/07/30 08:35:07;;;;;;;7.60;1.60;;;18.30;99.90;;;;;;5119227;27;20047;-82
2023/07/30 08:37:33;;;;;;;6.32;2.10;;;18.10;99.90;;;;;;5143673;27;20067;-81
2023/07/30 08:39:58;;;;;;;10.18;1.50;;;18.00;99.90;;;;;;5117135;27;20078;-80
2023/07/30 08:42:24;;;;;;;11.05;1.95;;;18.00;99.90;;;;;;5127331;27;20110;-80
2023/07/30 08:44:50;;;;;;;8.07;1.50;;;17.90;99.90;;;;;;5123104;27;20043;-81
2023/07/30 08:47:16;;;;;;;6.50;1.50;;;17.90;99.90;;;;;;5118058;27;20047;-81
2023/07/30 08:49:41;;;;;;;6.10;1.77;;;17.90;99.90;;;;;;5143461;27;20836;-81
2023/07/30 08:52:09;;;;;;;10.00;1.85;;;17.90;99.90;;;;;;5139557;27;20043;-80
2023/07/30 08:54:37;;;;;;;7.40;1.75;;;17.90;99.90;;;;;;5139760;27;20081;-78
2023/07/30 08:57:03;;;;;;;8.63;2.15;;;17.80;99.90;;;;;;5136380;27;20053;-78
2023/07/30 08:59:37;;;;;;;9.63;1.77;;;17.80;99.90;;;;;;5144853;27;20126;-78
2023/07/30 09:02:07;;;;;;;10.02;1.40;;;17.80;99.90;;;;;;5133465;27;20081;-78
2023/07/30 09:04:36;;;;;;;9.60;2.15;;;17.80;99.90;;;;;;5146575;27;20212;-81
2023/07/30 09:07:01;;;;;;;7.75;1.80;;;17.80;99.90;;;;;;5133071;27;20370;-83
2023/07/30 09:09:27;;;;;;;9.05;2.17;;;17.80;99.90;;;;;;5142854;27;20094;-81
2023/07/30 09:11:56;;;;;;;11.15;1.95;;;17.80;99.90;;;;;;5144631;27;20603;-82
2023/07/30 09:14:21;;;;;;;9.30;1.80;;;17.90;99.90;;;;;;5117391;27;20055;-82
2023/07/30 09:16:47;;;;;;;6.57;1.58;;;18.00;99.90;;;;;;5138727;27;20035;-82
2023/07/30 09:19:17;;;;;;;7.30;1.90;;;18.00;99.90;;;;;;5126404;27;20152;-83
2023/07/30 09:21:43;;;;;;;8.07;1.95;;;18.30;99.90;;;;;;5136585;27;20102;-83
2023/07/30 09:24:09;;;;;;;9.15;2.30;;;18.40;99.90;;;;;;5118422;27;20039;-83
2023/07/30 09:26:45;;;;;;;10.20;2.33;;;18.40;99.90;;;;;;5139065;27;20030;-83
2023/07/30 09:29:11;;;;;;;9.35;2.13;;;18.50;99.90;;;;;;5119801;27;20051;-82
2023/07/30 09:31:53;;;;;;;9.80;2.20;;;18.40;99.90;;;;;;5136133;27;20042;-82
2023/07/30 09:34:19;;;;;;;11.27;2.22;;;18.40;99.90;;;;;;5124018;27;20054;-82
2023/07/30 09:36:46;;;;;;;11.73;2.47;;;18.30;99.90;;;;;;5105522;27;20061;-81
2023/07/30 09:39:26;;;;;;;12.88;2.22;;;18.20;99.90;;;;;;5137849;27;20118;-81
2023/07/30 09:41:58;;;;;;;7.28;2.10;;;18.10;99.90;;;;;;5137419;27;20054;-81
2023/07/30 09:44:24;;;;;;;13.15;2.10;;;17.90;99.90;;;;;;5111962;27;20039;-81
2023/07/30 09:46:50;;;;;;;7.80;1.88;;;17.90;99.90;;;;;;5142533;27;20033;-81
2023/07/30 09:49:17;;;;;;;6.78;2.20;;;17.80;99.90;;;;;;5102401;27;20062;-81
2023/07/30 09:51:43;;;;;;;9.30;1.40;;;17.90;99.90;;;;;;5113350;27;20122;-81
2023/07/30 09:54:11;;;;;;;7.85;1.70;;;17.90;99.90;;;;;;5117676;27;20427;-82
2023/07/30 09:56:38;;;;;;;6.97;1.38;;;17.80;99.90;;;;;;5118673;27;20031;-81
2023/07/30 09:59:05;;;;;;;10.68;1.88;;;17.90;99.90;;;;;;5111125;28;20037;-82
2023/07/30 10:01:32;;;;;;;8.18;1.85;;;17.90;99.90;;;;;;5133781;27;20401;-82
2023/07/30 10:04:03;;;;;;;7.43;2.60;;;18.00;99.90;;;;;;5119931;27;20042;-82
2023/07/30 10:06:32;;;;;;;8.90;1.40;;;18.00;99.90;;;;;;5135688;27;20114;-82
2023/07/30 10:08:59;;;;;;;6.68;1.33;;;18.10;99.90;;;;;;5119760;27;20049;-82
2023/07/30 10:11:26;;;;;;;6.10;1.55;;;18.10;99.90;;;;;;5113659;28;20473;-82
2023/07/30 10:13:53;;;;;;;4.65;1.00;;;18.00;99.90;;;;;;5119602;27;20048;-81
2023/07/30 10:16:26;;;;;;;5.93;1.35;;;18.00;99.90;;;;;;5117823;27;20034;-81
2023/07/30 10:18:56;;;;;;;5.13;1.38;;;17.90;99.90;;;;;;5115353;27;20047;-81
2023/07/30 10:21:24;;;;;;;6.43;1.20;;;17.90;99.90;;;;;;5139725;27;20038;-81
2023/07/30 10:24:04;;;;;;;5.30;1.23;;;17.90;99.90;;;;;;5133100;27;20389;-81
2023/07/30 10:26:35;;;;;;;4.13;1.33;;;17.90;99.90;;;;;;5131771;27;20035;-81
2023/07/30 10:29:19;;;;;;;4.85;1.25;;;17.90;99.90;;;;;;5116448;27;20054;-81
2023/07/30 10:31:50;;;;;;;3.95;1.10;;;18.00;99.90;;;;;;5136501;27;20152;-81
2023/07/30 10:34:15;;;;;;;4.30;1.05;;;18.00;99.90;;;;;;5118442;27;20057;-81
2023/07/30 10:36:47;;;;;;;3.97;1.02;;;18.10;99.90;;;;;;5139927;27;20038;-80
2023/07/30 10:39:18;;;;;;;4.43;1.00;;;18.20;99.90;;;;;;5132526;27;20039;-81
2023/07/30 10:41:45;;;;;;;6.03;1.40;;;18.40;99.90;;;;;;5136503;27;20081;-80
2023/07/30 10:44:31;;;;;;;6.75;1.30;;;18.60;99.90;;;;;;5139292;27;20501;-81
2023/07/30 10:46:59;;;;;;;6.05;1.00;;;18.80;99.90;;;;;;5132848;27;20023;-81
2023/07/30 10:49:25;;;;;;;6.82;1.17;;;19.00;99.90;;;;;;5118093;27;20038;-81
2023/07/30 10:51:53;;;;;;;5.75;1.27;;;19.00;99.90;;;;;;5135804;27;20528;-81
2023/07/30 10:54:19;;;;;;;4.82;1.30;;;19.10;99.90;;;;;;5133955;27;20065;-81
2023/07/30 10:56:45;;;;;;;8.05;1.55;;;19.00;99.90;;;;;;5111730;27;20397;-81
2023/07/30 10:59:12;;;;;;;8.95;1.83;;;19.00;99.90;;;;;;5135221;27;20484;-81
2023/07/30 11:01:39;;;;;;;7.30;1.42;;;18.90;99.90;;;;;;5135487;27;20048;-81
2023/07/30 11:04:17;;;;;;;9.95;2.17;;;18.80;99.90;;;;;;5141602;27;20477;-81
2023/07/30 11:06:48;;;;;;;10.27;1.55;;;18.70;99.90;;;;;;5137340;27;20104;-81
2023/07/30 11:09:26;;;;;;;7.55;1.63;;;18.60;99.90;;;;;;5122713;27;20074;-80
2023/07/30 11:11:55;;;;;;;8.93;1.67;;;18.40;99.90;;;;;;5141400;27;20081;-82
2023/07/30 11:14:28;;;;;;;8.07;1.40;;;18.40;99.90;;;;;;5115587;27;20090;-83
2023/07/30 11:16:55;;;;;;;6.05;1.50;;;18.30;99.90;;;;;;5139919;27;20581;-82
2023/07/30 11:19:21;;;;;;;9.15;1.80;;;18.30;99.90;;;;;;5125698;27;20038;-82
2023/07/30 11:21:51;;;;;;;10.50;2.25;;;18.50;99.90;;;;;;5132693;27;20086;-81
2023/07/30 11:24:17;;;;;;;8.82;1.70;;;18.70;99.90;;;;;;5131614;27;20544;-82
2023/07/30 11:26:43;;;;;;;7.18;1.95;;;18.90;99.90;;;;;;5140894;27;20161;-82
2023/07/30 11:29:19;;;;;;;8.95;1.45;;;19.10;99.90;;;;;;5134803;27;20035;-81
2023/07/30 11:31:45;;;;;;;9.73;1.92;;;19.40;99.90;;;;;;5097339;27;20492;-82
2023/07/30 11:34:12;;;;;;;10.82;2.03;;;19.60;99.90;;;;;;5132431;27;20293;-82
2023/07/30 11:36:38;;;;;;;9.10;2.00;;;19.80;99.90;;;;;;5133688;27;20074;-81
2023/07/30 11:39:04;;;;;;;15.90;2.25;;;19.80;99.90;;;;;;5132323;27;20035;-82
2023/07/30 11:41:30;;;;;;;8.77;2.33;;;19.90;99.90;;;;;;5131920;27;20034;-81
2023/07/30 11:43:56;;;;;;;7.80;1.67;;;19.90;99.90;;;;;;5111660;27;20043;-82
2023/07/30 11:46:22;;;;;;;7.20;1.50;;;19.90;99.90;;;;;;5133896;27;20039;-82
2023/07/30 11:48:49;;;;;;;8.93;1.83;;;20.00;99.90;;;;;;5130074;27;20039;-82
2023/07/30 11:51:28;;;;;;;5.90;1.10;;;20.10;99.90;;;;;;5129946;27;20597;-81
2023/07/30 11:53:59;;;;;;;7.22;1.50;;;20.20;99.90;;;;;;5111640;27;20038;-82
2023/07/30 11:56:30;;;;;;;8.07;1.50;;;20.30;99.90;;;;;;5135890;27;20039;-82
2023/07/30 11:59:05;;;;;;;9.32;1.95;;;20.30;99.90;;;;;;5113916;27;20070;-82
2023/07/30 12:01:36;;;;;;;7.80;1.55;;;20.20;99.90;;;;;;5131505;27;20534;-82
2023/07/30 12:04:04;;;;;;;8.07;1.52;;;20.00;99.90;;;;;;5114405;27;20095;-82
2023/07/30 12:06:42;;;;;;;7.90;1.35;;;19.90;99.90;;;;;;5124235;27;20121;-81
2023/07/30 12:09:22;;;;;;;5.78;1.35;;;19.70;99.90;;;;;;5131666;27;20038;-82
2023/07/30 12:11:59;;;;;;;9.43;1.83;;;19.70;99.90;;;;;;5113365;27;20399;-81
2023/07/30 12:14:30;;;;;;;8.55;1.30;;;19.70;99.90;;;;;;5107839;27;20039;-82
2023/07/30 12:17:05;;;;;;;7.25;1.70;;;19.90;99.90;;;;;;5116950;27;20111;-81
2023/07/30 12:19:30;;;;;;;7.80;1.90;;;20.00;99.90;;;;;;5116812;27;20062;-82
2023/07/30 12:21:56;;;;;;;8.18;1.58;;;20.10;99.90;;;;;;5135396;27;20076;-82
2023/07/30 12:24:22;;;;;;;10.95;1.95;;;20.20;99.90;;;;;;5113243;27;20043;-81
2023/07/30 12:26:47;;;;;;;7.60;1.40;;;20.00;99.90;;;;;;5116178;27;20035;-81
2023/07/30 12:29:13;;;;;;;8.38;1.40;;;19.90;99.90;;;;;;5112419;27;20052;-81
2023/07/30 12:31:39;;;;;;;7.60;1.70;;;19.80;99.90;;;;;;5113006;27;20526;-81
2023/07/30 12:34:04;;;;;;;29.60;2.75;;;19.50;99.90;;;;;;5112631;27;20080;-82
2023/07/30 12:36:30;;;;;;;7.50;1.23;;;19.30;99.90;;;;;;5096661;27;21400;-83
2023/07/30 12:38:56;;;;;;;5.78;1.10;;;18.90;99.90;;;;;;5110622;27;20058;-81